Time;durP1;ratioP1;P1;durP2;ratioP2;P2;SDS_P1;SDS_P2;PMS_P1;PMS_P2;Temp;Humidity;BMP_temperature;BMP_pressure;BME280_temperature;BME280_humidity;BME280_pressure;Samples;Min_cycle;Max_cycle;Signal;HPM_P1;HPM_P2
2021/07/26 00:00:37;;;;;;;5.47;4.22;;;21.50;99.90;;;;;;5047883;28;20033;-69
2021/07/26 00:03:02;;;;;;;6.70;4.40;;;21.50;99.90;;;;;;5059080;28;20101;-68
2021/07/26 00:05:28;;;;;;;6.18;5.30;;;21.50;99.90;;;;;;5055652;28;20036;-69
2021/07/26 00:07:54;;;;;;;5.13;4.40;;;21.50;99.90;;;;;;5052537;28;20379;-69
2021/07/26 00:10:19;;;;;;;5.38;4.38;;;21.50;99.90;;;;;;5063846;28;20037;-69
2021/07/26 00:12:45;;;;;;;6.25;4.43;;;21.60;99.90;;;;;;5059023;28;20381;-69
2021/07/26 00:15:11;;;;;;;7.25;5.20;;;21.50;99.90;;;;;;5054225;28;20079;-68
2021/07/26 00:17:37;;;;;;;4.47;3.97;;;21.50;99.90;;;;;;5060291;28;20452;-69
2021/07/26 00:20:04;;;;;;;6.35;5.10;;;21.60;99.90;;;;;;5056437;28;20029;-69
2021/07/26 00:22:29;;;;;;;6.55;4.50;;;21.50;99.90;;;;;;5051422;28;20066;-68
2021/07/26 00:24:55;;;;;;;7.50;4.65;;;21.50;99.90;;;;;;5049009;28;20041;-69
2021/07/26 00:27:20;;;;;;;5.57;4.80;;;21.50;99.90;;;;;;5050223;28;20370;-68
2021/07/26 00:29:46;;;;;;;5.68;4.78;;;21.40;99.90;;;;;;5053818;28;20033;-69
2021/07/26 00:32:12;;;;;;;6.55;4.90;;;21.50;99.90;;;;;;5053020;28;20171;-69
2021/07/26 00:34:37;;;;;;;9.65;5.18;;;21.40;99.90;;;;;;5055535;28;20029;-69
2021/07/26 00:37:03;;;;;;;6.45;4.72;;;21.40;99.90;;;;;;5050249;28;20021;-68
2021/07/26 00:39:34;;;;;;;5.97;3.90;;;21.40;99.90;;;;;;5056697;28;20028;-69
2021/07/26 00:42:00;;;;;;;7.18;4.90;;;21.40;99.90;;;;;;5047410;28;20025;-68
2021/07/26 00:44:29;;;;;;;4.80;4.25;;;21.30;99.90;;;;;;5057927;28;20177;-69
2021/07/26 00:46:55;;;;;;;7.00;4.43;;;21.30;99.90;;;;;;5050936;28;20021;-68
2021/07/26 00:49:22;;;;;;;5.90;4.15;;;21.20;99.90;;;;;;5053645;28;20039;-69
2021/07/26 00:51:53;;;;;;;6.13;4.28;;;21.30;99.90;;;;;;5054893;28;20048;-69
2021/07/26 00:54:21;;;;;;;5.28;3.97;;;21.20;99.90;;;;;;5044182;28;20025;-68
2021/07/26 00:56:49;;;;;;;4.32;3.88;;;21.10;99.90;;;;;;5046956;28;20052;-69
2021/07/26 00:59:15;;;;;;;4.90;4.40;;;21.10;99.90;;;;;;5059319;28;20035;-68
2021/07/26 01:01:42;;;;;;;8.07;4.30;;;21.00;99.90;;;;;;5044681;28;20032;-68
2021/07/26 01:04:07;;;;;;;6.10;4.00;;;21.00;99.90;;;;;;5051714;28;20028;-69
2021/07/26 01:06:34;;;;;;;6.82;3.75;;;21.00;99.90;;;;;;5048462;28;20091;-68
2021/07/26 01:09:00;;;;;;;6.32;4.20;;;21.00;99.90;;;;;;5058042;28;20037;-68
2021/07/26 01:11:26;;;;;;;6.25;4.60;;;21.00;99.90;;;;;;5067999;28;20016;-69
2021/07/26 01:13:52;;;;;;;5.00;4.50;;;21.00;99.90;;;;;;5056028;28;20079;-69
2021/07/26 01:16:18;;;;;;;6.85;4.65;;;21.00;99.90;;;;;;5060374;28;20036;-68
2021/07/26 01:18:43;;;;;;;7.88;4.40;;;21.00;99.90;;;;;;5057319;28;20025;-68
2021/07/26 01:21:17;;;;;;;6.43;4.63;;;20.90;99.90;;;;;;5059465;28;20086;-69
2021/07/26 01:23:48;;;;;;;8.18;4.97;;;21.00;99.90;;;;;;5051362;28;20469;-68
2021/07/26 01:26:16;;;;;;;6.63;4.97;;;20.90;99.90;;;;;;5059137;28;20048;-68
2021/07/26 01:28:44;;;;;;;8.85;6.20;;;20.90;99.90;;;;;;5050007;28;20086;-68
2021/07/26 01:31:10;;;;;;;8.68;6.15;;;20.80;99.90;;;;;;5055760;28;20036;-68
2021/07/26 01:33:36;;;;;;;7.85;5.38;;;20.90;99.90;;;;;;5048811;28;20028;-69
2021/07/26 01:36:03;;;;;;;7.03;4.90;;;20.90;99.90;;;;;;5050869;28;20028;-68
2021/07/26 01:38:29;;;;;;;7.95;5.38;;;20.80;99.90;;;;;;5056818;28;20022;-69
2021/07/26 01:41:00;;;;;;;4.60;4.20;;;20.80;99.90;;;;;;5059354;28;20082;-68
2021/07/26 01:43:32;;;;;;;5.20;4.55;;;20.80;99.90;;;;;;5047492;28;20025;-69
2021/07/26 01:46:03;;;;;;;5.53;4.28;;;20.80;99.90;;;;;;5056849;28;20038;-69
2021/07/26 01:48:45;;;;;;;9.48;4.80;;;20.80;99.90;;;;;;5054870;28;20025;-69
2021/07/26 01:51:29;;;;;;;6.65;4.40;;;20.80;99.90;;;;;;5053437;28;20554;-68
2021/07/26 01:53:55;;;;;;;9.55;4.55;;;20.80;99.90;;;;;;5066833;28;20479;-69
2021/07/26 01:56:20;;;;;;;9.13;5.00;;;20.80;99.90;;;;;;5054453;28;20040;-68
2021/07/26 01:58:46;;;;;;;5.32;4.30;;;20.70;99.90;;;;;;5052729;28;20462;-69
2021/07/26 02:01:12;;;;;;;7.78;4.47;;;20.70;99.90;;;;;;5056867;28;20049;-69
2021/07/26 02:03:37;;;;;;;5.95;4.18;;;20.70;99.90;;;;;;5054292;28;20415;-69
2021/07/26 02:06:03;;;;;;;5.53;4.57;;;20.70;99.90;;;;;;5061153;28;20401;-69
2021/07/26 02:08:29;;;;;;;5.20;4.70;;;20.70;99.90;;;;;;5057067;28;20036;-69
2021/07/26 02:10:54;;;;;;;5.50;4.88;;;20.70;99.90;;;;;;5054527;28;20044;-69
2021/07/26 02:13:20;;;;;;;6.13;5.50;;;20.60;99.90;;;;;;5063139;28;20463;-68
2021/07/26 02:15:45;;;;;;;6.90;5.13;;;20.60;99.90;;;;;;5059900;28;20021;-68
2021/07/26 02:18:11;;;;;;;8.50;5.82;;;20.60;99.90;;;;;;5055502;28;20033;-68
2021/07/26 02:20:36;;;;;;;6.68;5.45;;;20.50;99.90;;;;;;5061170;28;20540;-69
2021/07/26 02:23:03;;;;;;;7.60;5.97;;;20.40;99.90;;;;;;5060918;28;20045;-69
2021/07/26 02:25:29;;;;;;;7.75;5.35;;;20.50;99.90;;;;;;5050425;28;20131;-68
2021/07/26 02:27:55;;;;;;;10.50;6.35;;;20.50;99.90;;;;;;5048242;28;20056;-68
2021/07/26 02:30:20;;;;;;;6.45;5.32;;;20.50;99.90;;;;;;5052834;28;20040;-69
2021/07/26 02:32:46;;;;;;;7.13;5.28;;;20.50;99.90;;;;;;5054052;28;20086;-69
2021/07/26 02:35:11;;;;;;;8.25;5.18;;;20.50;99.90;;;;;;5052186;28;20027;-68
2021/07/26 02:37:37;;;;;;;6.20;5.55;;;20.60;99.90;;;;;;5048565;28;20021;-69
2021/07/26 02:40:03;;;;;;;6.40;4.90;;;20.60;99.90;;;;;;5055855;28;20111;-68
2021/07/26 02:42:29;;;;;;;8.63;4.95;;;20.50;99.90;;;;;;5052830;28;20021;-68
2021/07/26 02:44:55;;;;;;;6.68;5.15;;;20.50;99.90;;;;;;5054361;28;20447;-68
2021/07/26 02:47:20;;;;;;;6.35;4.78;;;20.60;99.90;;;;;;5050652;28;20037;-69
2021/07/26 02:49:46;;;;;;;7.97;4.40;;;20.50;99.90;;;;;;5052025;28;20484;-68
2021/07/26 02:52:11;;;;;;;6.50;4.55;;;20.50;99.90;;;;;;5053465;28;20029;-69
2021/07/26 02:54:37;;;;;;;8.50;5.70;;;20.50;99.90;;;;;;5042072;28;20378;-72
2021/07/26 02:57:03;;;;;;;9.10;5.53;;;20.60;99.90;;;;;;5050987;28;20051;-70
2021/07/26 02:59:28;;;;;;;9.15;4.85;;;20.60;99.90;;;;;;5047470;28;20061;-69
2021/07/26 03:01:54;;;;;;;7.60;4.60;;;20.50;99.90;;;;;;5054912;28;20021;-70
2021/07/26 03:04:19;;;;;;;7.60;4.88;;;20.50;99.90;;;;;;5046630;28;20473;-69
2021/07/26 03:06:45;;;;;;;5.28;4.40;;;20.50;99.90;;;;;;5052446;28;20071;-69
2021/07/26 03:09:11;;;;;;;7.80;4.68;;;20.50;99.90;;;;;;5050028;28;20065;-69
2021/07/26 03:11:36;;;;;;;7.85;4.80;;;20.40;99.90;;;;;;5049203;28;20039;-69
2021/07/26 03:14:04;;;;;;;6.60;4.35;;;20.40;99.90;;;;;;5052968;28;20028;-68
2021/07/26 03:16:30;;;;;;;6.07;4.55;;;20.40;99.90;;;;;;5051535;28;20035;-69
2021/07/26 03:18:56;;;;;;;14.48;5.72;;;20.40;99.90;;;;;;5054314;28;20021;-69
2021/07/26 03:21:21;;;;;;;7.07;4.40;;;20.40;99.90;;;;;;5054699;28;20054;-69
2021/07/26 03:23:47;;;;;;;7.70;5.13;;;20.40;99.90;;;;;;5046192;28;20028;-69
2021/07/26 03:26:13;;;;;;;7.78;5.65;;;20.40;99.90;;;;;;5052187;28;20157;-69
2021/07/26 03:28:39;;;;;;;6.55;5.22;;;20.40;99.90;;;;;;5050436;28;20057;-69
2021/07/26 03:31:04;;;;;;;8.27;6.00;;;20.40;99.90;;;;;;5044679;28;20426;-69
2021/07/26 03:33:30;;;;;;;9.15;5.22;;;20.30;99.90;;;;;;5052945;28;20379;-69
2021/07/26 03:35:56;;;;;;;6.57;4.57;;;20.30;99.90;;;;;;5056655;28;20081;-69
2021/07/26 03:38:22;;;;;;;4.75;4.35;;;20.30;99.90;;;;;;5052613;28;20382;-69
2021/07/26 03:40:49;;;;;;;5.28;4.50;;;20.30;99.90;;;;;;5051371;28;20030;-69
2021/07/26 03:43:15;;;;;;;9.13;5.82;;;20.30;99.90;;;;;;5054002;28;20064;-69
2021/07/26 03:45:42;;;;;;;5.97;4.70;;;20.20;99.90;;;;;;5055933;28;20087;-69
2021/07/26 03:48:07;;;;;;;8.55;5.50;;;20.10;99.90;;;;;;5055931;28;20032;-68
2021/07/26 03:50:33;;;;;;;7.97;5.32;;;20.20;99.90;;;;;;5056871;28;20037;-69
2021/07/26 03:52:59;;;;;;;6.82;5.50;;;20.10;99.90;;;;;;5057321;28;20105;-69
2021/07/26 03:55:31;;;;;;;6.10;5.50;;;20.10;99.90;;;;;;5056866;28;20029;-69
2021/07/26 03:57:59;;;;;;;10.20;6.00;;;20.10;99.90;;;;;;5049645;28;20074;-69
2021/07/26 04:00:27;;;;;;;10.65;5.93;;;20.10;99.90;;;;;;5053418;28;20095;-69
2021/07/26 04:05:26;;;;;;;9.55;6.05;;;20.10;99.90;;;;;;5058009;28;20033;-68
2021/07/26 04:07:52;;;;;;;9.57;5.90;;;20.10;99.90;;;;;;5052137;28;20384;-69
2021/07/26 04:10:18;;;;;;;6.60;5.95;;;20.00;99.90;;;;;;5058791;28;20029;-69
2021/07/26 04:12:47;;;;;;;11.68;5.40;;;20.00;99.90;;;;;;5059172;28;20023;-69
2021/07/26 04:15:13;;;;;;;8.40;5.32;;;20.10;99.90;;;;;;5044933;28;20074;-69
2021/07/26 04:17:38;;;;;;;8.38;5.50;;;20.00;99.90;;;;;;5058164;28;20420;-69
2021/07/26 04:20:05;;;;;;;8.98;5.47;;;20.00;99.90;;;;;;5055109;28;20039;-69
2021/07/26 04:22:31;;;;;;;5.70;4.93;;;20.00;99.90;;;;;;5052679;28;20029;-69
2021/07/26 04:24:57;;;;;;;9.77;5.68;;;20.00;99.90;;;;;;5061396;28;20078;-69
2021/07/26 04:27:25;;;;;;;9.88;6.03;;;19.90;99.90;;;;;;5050397;28;20473;-69
2021/07/26 04:29:50;;;;;;;11.48;6.30;;;20.00;99.90;;;;;;5054756;28;20552;-69
2021/07/26 04:32:16;;;;;;;6.85;5.65;;;20.10;99.90;;;;;;5059629;28;20100;-68
2021/07/26 04:34:41;;;;;;;5.72;4.85;;;20.10;99.90;;;;;;5059547;28;20408;-69
2021/07/26 04:37:07;;;;;;;6.43;5.32;;;20.00;99.90;;;;;;5058689;28;20033;-69
2021/07/26 04:39:32;;;;;;;7.15;5.18;;;19.90;99.90;;;;;;5049806;28;20029;-69
2021/07/26 04:41:58;;;;;;;5.28;4.70;;;20.00;99.90;;;;;;5055009;28;20064;-69
2021/07/26 04:44:23;;;;;;;8.98;5.78;;;20.00;99.90;;;;;;5055204;28;20028;-69
2021/07/26 04:46:49;;;;;;;10.93;5.40;;;20.00;99.90;;;;;;5056477;28;20021;-69
2021/07/26 04:49:15;;;;;;;7.60;5.55;;;20.00;99.90;;;;;;5053193;28;20044;-69
2021/07/26 04:51:40;;;;;;;8.43;5.38;;;20.10;99.90;;;;;;5053590;28;20104;-69
2021/07/26 04:54:06;;;;;;;5.30;4.78;;;20.10;99.90;;;;;;5048017;28;20032;-69
2021/07/26 04:56:31;;;;;;;7.88;5.05;;;20.00;99.90;;;;;;5058367;28;20400;-70
2021/07/26 04:58:57;;;;;;;7.40;5.72;;;20.00;99.90;;;;;;5055926;28;20388;-69
2021/07/26 05:01:22;;;;;;;8.55;5.75;;;20.10;99.90;;;;;;5047960;28;20025;-69
2021/07/26 05:03:48;;;;;;;12.27;5.97;;;20.00;99.90;;;;;;5059322;28;20028;-68
2021/07/26 05:06:14;;;;;;;9.45;5.78;;;20.00;99.90;;;;;;5066495;28;20032;-69
2021/07/26 05:08:39;;;;;;;6.45;5.30;;;20.10;99.90;;;;;;5052526;28;20064;-69
2021/07/26 05:11:05;;;;;;;6.25;5.40;;;20.10;99.90;;;;;;5049025;28;20045;-69
2021/07/26 05:13:30;;;;;;;7.80;4.95;;;20.00;99.90;;;;;;5055019;28;20362;-69
2021/07/26 05:15:56;;;;;;;8.25;6.03;;;20.10;99.90;;;;;;5063009;28;20098;-69
2021/07/26 05:18:23;;;;;;;7.50;5.65;;;20.00;99.90;;;;;;5050932;28;20021;-69
2021/07/26 05:20:49;;;;;;;11.43;5.65;;;19.90;99.90;;;;;;5062451;28;20029;-73
2021/07/26 05:23:16;;;;;;;7.72;5.60;;;19.90;99.90;;;;;;5056321;28;20036;-69
2021/07/26 05:25:45;;;;;;;9.45;6.10;;;19.90;99.90;;;;;;5050202;28;20033;-69
2021/07/26 05:28:12;;;;;;;7.85;5.88;;;19.90;99.90;;;;;;5055555;28;20082;-69
2021/07/26 05:30:38;;;;;;;10.98;6.45;;;19.90;99.90;;;;;;5065975;28;20024;-69
2021/07/26 05:33:04;;;;;;;8.30;5.70;;;20.00;99.90;;;;;;5056785;28;20087;-68
2021/07/26 05:35:31;;;;;;;7.97;5.68;;;19.90;99.90;;;;;;5056008;28;20036;-69
2021/07/26 05:37:56;;;;;;;8.02;6.13;;;20.00;99.90;;;;;;5058179;28;20030;-69
2021/07/26 05:40:22;;;;;;;7.47;5.88;;;20.10;99.90;;;;;;5068123;28;20042;-69
2021/07/26 05:42:48;;;;;;;9.00;6.53;;;20.00;99.90;;;;;;5045606;28;20033;-69
2021/07/26 05:45:13;;;;;;;11.02;5.70;;;20.10;99.90;;;;;;5059271;28;20029;-69
2021/07/26 05:47:39;;;;;;;6.75;6.05;;;20.10;99.90;;;;;;5051839;28;20020;-69
2021/07/26 05:50:05;;;;;;;9.70;6.05;;;20.10;99.90;;;;;;5055650;28;20122;-69
2021/07/26 05:52:31;;;;;;;5.78;5.18;;;20.10;99.90;;;;;;5065651;28;20021;-69
2021/07/26 05:54:57;;;;;;;6.85;4.75;;;20.10;99.90;;;;;;5049694;28;20086;-68
2021/07/26 05:57:24;;;;;;;9.35;4.97;;;20.20;99.90;;;;;;5054902;28;20024;-69
2021/07/26 05:59:53;;;;;;;6.05;4.30;;;20.30;99.90;;;;;;5060912;28;20500;-69
2021/07/26 06:02:18;;;;;;;13.57;5.35;;;20.30;99.90;;;;;;5052940;28;20493;-69
2021/07/26 06:04:44;;;;;;;6.68;5.15;;;20.30;99.90;;;;;;5048727;28;20040;-69
2021/07/26 06:07:09;;;;;;;10.55;4.95;;;20.30;99.90;;;;;;5052766;28;20044;-69
2021/07/26 06:09:35;;;;;;;5.72;5.13;;;20.20;99.90;;;;;;5050109;28;20121;-69
2021/07/26 06:12:01;;;;;;;6.60;4.40;;;20.30;99.90;;;;;;5052959;28;20033;-70
2021/07/26 06:14:26;;;;;;;6.53;5.32;;;20.40;99.90;;;;;;5051617;28;20024;-69
2021/07/26 06:16:53;;;;;;;9.38;5.07;;;20.40;99.90;;;;;;5053098;28;20036;-69
2021/07/26 06:19:20;;;;;;;7.57;5.57;;;20.30;99.90;;;;;;5047697;28;20474;-69
2021/07/26 06:21:51;;;;;;;7.13;4.50;;;20.30;99.90;;;;;;5048519;28;20028;-69
2021/07/26 06:24:18;;;;;;;6.82;5.07;;;20.30;99.90;;;;;;5053702;28;20029;-69
2021/07/26 06:26:44;;;;;;;6.50;5.07;;;20.30;99.90;;;;;;5051270;28;20024;-69
2021/07/26 06:29:10;;;;;;;6.32;4.80;;;20.30;99.90;;;;;;5051518;28;20096;-68
2021/07/26 06:31:37;;;;;;;5.72;5.22;;;20.30;99.90;;;;;;5050261;28;20120;-69
2021/07/26 06:34:04;;;;;;;6.10;4.85;;;20.30;99.90;;;;;;5054283;28;20071;-69
2021/07/26 06:36:30;;;;;;;5.15;4.45;;;20.40;99.90;;;;;;5063923;28;20052;-70
2021/07/26 06:38:56;;;;;;;5.45;4.15;;;20.40;99.90;;;;;;5044038;28;20059;-68
2021/07/26 06:41:22;;;;;;;4.88;3.92;;;20.30;99.90;;;;;;5052143;28;20040;-69
2021/07/26 06:43:49;;;;;;;6.65;4.65;;;20.40;99.90;;;;;;5053191;28;20112;-69
2021/07/26 06:46:15;;;;;;;4.63;4.20;;;20.40;99.90;;;;;;5048001;28;20053;-69
2021/07/26 06:48:41;;;;;;;7.45;5.13;;;20.40;99.90;;;;;;5056852;28;20061;-69
2021/07/26 06:51:06;;;;;;;6.43;4.80;;;20.40;99.90;;;;;;5053391;28;20474;-69
2021/07/26 06:53:35;;;;;;;6.10;4.63;;;20.30;99.90;;;;;;5048417;28;20086;-69
2021/07/26 06:56:08;;;;;;;4.53;3.90;;;20.40;99.90;;;;;;5058893;28;20024;-69
2021/07/26 06:58:41;;;;;;;9.18;4.30;;;20.50;99.90;;;;;;5049066;28;20056;-68
2021/07/26 07:01:15;;;;;;;5.75;4.00;;;20.50;99.90;;;;;;5053020;28;20021;-68
2021/07/26 07:03:42;;;;;;;6.15;4.15;;;20.60;99.90;;;;;;5053863;28;20029;-68
2021/07/26 07:06:10;;;;;;;4.10;3.70;;;20.70;99.90;;;;;;5048556;28;20039;-68
2021/07/26 07:08:36;;;;;;;4.40;4.00;;;20.80;99.90;;;;;;5053082;28;20423;-68
2021/07/26 07:11:13;;;;;;;5.57;4.05;;;20.80;99.90;;;;;;5050656;28;20067;-69
2021/07/26 07:13:43;;;;;;;7.65;4.32;;;21.00;99.90;;;;;;5049909;28;20092;-69
2021/07/26 07:16:17;;;;;;;4.97;3.40;;;21.20;99.90;;;;;;5045805;28;20413;-69
2021/07/26 07:18:47;;;;;;;4.15;3.78;;;21.30;99.90;;;;;;5050153;28;20021;-69
2021/07/26 07:21:17;;;;;;;5.47;3.50;;;21.30;99.90;;;;;;5051400;28;20028;-69
2021/07/26 07:23:43;;;;;;;4.30;3.50;;;21.30;99.90;;;;;;5054222;28;20025;-69
2021/07/26 07:26:08;;;;;;;5.50;3.45;;;21.40;99.90;;;;;;5050255;28;20031;-69
2021/07/26 07:28:34;;;;;;;4.00;3.60;;;21.40;99.90;;;;;;5058523;28;20036;-69
2021/07/26 07:30:59;;;;;;;9.35;3.80;;;21.20;99.90;;;;;;5048953;28;20603;-70
2021/07/26 07:33:25;;;;;;;4.20;3.20;;;21.30;99.90;;;;;;5010148;28;22010;-69
2021/07/26 07:35:52;;;;;;;3.60;3.30;;;21.20;99.90;;;;;;5042355;28;20044;-69
2021/07/26 07:38:18;;;;;;;4.25;3.25;;;21.20;99.90;;;;;;5051727;28;20112;-69
2021/07/26 07:40:43;;;;;;;4.43;3.67;;;21.20;99.90;;;;;;5052059;28;20115;-69
2021/07/26 07:43:09;;;;;;;5.35;3.50;;;21.30;99.90;;;;;;5048208;28;20036;-68
2021/07/26 07:45:35;;;;;;;8.88;3.90;;;21.30;99.90;;;;;;5051396;28;20053;-68
2021/07/26 07:48:01;;;;;;;4.93;3.10;;;21.50;99.90;;;;;;5058542;28;20020;-68
2021/07/26 07:50:27;;;;;;;5.75;3.55;;;21.70;99.90;;;;;;5061858;28;20642;-68
2021/07/26 07:52:53;;;;;;;6.93;3.28;;;21.80;99.90;;;;;;5056693;28;20026;-68
2021/07/26 07:55:20;;;;;;;4.95;3.10;;;21.90;99.90;;;;;;5058320;28;20025;-67
2021/07/26 07:57:48;;;;;;;6.00;3.33;;;21.70;99.90;;;;;;5049606;28;20017;-68
2021/07/26 08:00:16;;;;;;;4.13;3.75;;;21.80;99.90;;;;;;5058110;28;20028;-68
2021/07/26 08:02:41;;;;;;;3.55;3.25;;;21.80;99.90;;;;;;5049263;28;20358;-68
2021/07/26 08:05:08;;;;;;;4.45;3.08;;;21.80;99.90;;;;;;5054823;28;20035;-68
2021/07/26 08:07:34;;;;;;;6.07;3.05;;;21.70;99.90;;;;;;5050357;28;20024;-67
2021/07/26 08:10:00;;;;;;;5.22;3.22;;;21.70;99.90;;;;;;5048202;28;20029;-68
2021/07/26 08:12:26;;;;;;;4.40;3.22;;;21.80;99.90;;;;;;5056724;28;20066;-68
2021/07/26 08:14:51;;;;;;;3.13;2.40;;;21.90;99.90;;;;;;5049812;28;20078;-71
2021/07/26 08:17:17;;;;;;;5.80;3.25;;;21.90;99.90;;;;;;5043167;28;20024;-70
2021/07/26 08:19:43;;;;;;;3.95;3.45;;;21.90;99.90;;;;;;5052363;28;20048;-68
2021/07/26 08:22:08;;;;;;;3.80;2.92;;;22.00;99.90;;;;;;5048596;28;20410;-68
2021/07/26 08:24:34;;;;;;;4.18;2.95;;;21.90;99.90;;;;;;5058397;28;20043;-71
2021/07/26 08:27:00;;;;;;;5.07;3.10;;;22.00;99.90;;;;;;5055662;28;20175;-68
2021/07/26 08:29:25;;;;;;;3.97;3.45;;;22.00;99.90;;;;;;5046121;28;20054;-72
2021/07/26 08:31:51;;;;;;;5.10;2.85;;;22.00;99.90;;;;;;5055002;28;20103;-71
2021/07/26 08:34:16;;;;;;;4.35;3.08;;;21.90;99.90;;;;;;5052641;28;20028;-71
2021/07/26 08:36:42;;;;;;;4.85;3.40;;;21.80;99.90;;;;;;5052730;28;20032;-71
2021/07/26 08:39:09;;;;;;;3.67;3.10;;;21.90;99.90;;;;;;5047861;28;20124;-71
2021/07/26 08:41:35;;;;;;;4.90;3.15;;;21.90;99.90;;;;;;5052448;28;20048;-71
2021/07/26 08:44:00;;;;;;;3.72;3.28;;;21.90;99.90;;;;;;5056362;28;20018;-71
2021/07/26 08:46:29;;;;;;;8.57;3.83;;;22.00;99.90;;;;;;5047998;28;20493;-72
2021/07/26 08:48:55;;;;;;;4.20;3.33;;;22.10;99.90;;;;;;5049766;28;20058;-71
2021/07/26 08:51:23;;;;;;;3.83;2.90;;;22.20;99.90;;;;;;5050433;28;20047;-71
2021/07/26 08:53:50;;;;;;;5.30;3.15;;;22.30;99.90;;;;;;5050095;28;20107;-70
2021/07/26 08:56:16;;;;;;;3.33;3.03;;;22.40;99.90;;;;;;5051746;28;20055;-69
2021/07/26 08:58:42;;;;;;;5.65;3.63;;;22.60;99.90;;;;;;5054692;28;20030;-69
2021/07/26 09:01:10;;;;;;;6.97;3.00;;;22.80;99.90;;;;;;5053701;28;20047;-68
2021/07/26 09:03:35;;;;;;;5.70;3.38;;;22.80;99.90;;;;;;5054275;28;20384;-68
2021/07/26 09:06:01;;;;;;;11.05;5.38;;;22.80;99.90;;;;;;5052283;28;20037;-68
2021/07/26 09:08:38;;;;;;;6.85;4.13;;;22.80;99.90;;;;;;5056667;28;20029;-68
2021/07/26 09:11:05;;;;;;;6.07;3.50;;;22.70;99.90;;;;;;5044030;28;20029;-68
2021/07/26 09:13:45;;;;;;;4.70;3.08;;;22.60;99.90;;;;;;5054324;28;20044;-69
2021/07/26 09:16:21;;;;;;;6.55;3.30;;;22.70;99.90;;;;;;5050536;28;20033;-69
2021/07/26 09:19:02;;;;;;;3.92;3.53;;;22.70;99.90;;;;;;5044627;28;20028;-68
2021/07/26 09:21:51;;;;;;;6.00;3.50;;;22.70;99.90;;;;;;5053755;28;20026;-68
2021/07/26 09:24:28;;;;;;;3.30;2.80;;;22.70;99.90;;;;;;5054228;28;20095;-68
2021/07/26 09:27:06;;;;;;;3.60;2.40;;;22.80;99.90;;;;;;5051053;28;20031;-68
2021/07/26 09:29:32;;;;;;;3.00;2.70;;;22.90;99.90;;;;;;5049587;28;20046;-68
2021/07/26 09:32:03;;;;;;;4.28;2.90;;;23.00;99.90;;;;;;5058148;28;20033;-68
2021/07/26 09:34:29;;;;;;;3.28;2.97;;;23.10;99.90;;;;;;5045798;28;20026;-67
2021/07/26 09:36:55;;;;;;;3.85;2.90;;;23.20;99.90;;;;;;5052978;28;20021;-68
2021/07/26 09:39:28;;;;;;;3.00;2.80;;;23.20;99.90;;;;;;5040619;28;20075;-68
2021/07/26 09:41:56;;;;;;;3.75;2.90;;;23.30;99.90;;;;;;5052873;28;20071;-71
2021/07/26 09:44:26;;;;;;;4.32;3.35;;;23.20;99.90;;;;;;5058424;28;20095;-68
2021/07/26 09:46:53;;;;;;;5.97;3.00;;;23.00;99.90;;;;;;5042703;28;20037;-71
2021/07/26 09:49:21;;;;;;;3.65;2.75;;;23.00;99.90;;;;;;5052967;28;20442;-68
2021/07/26 09:52:13;;;;;;;3.67;3.13;;;22.90;99.90;;;;;;5057369;28;20032;-68
2021/07/26 09:54:52;;;;;;;3.13;2.83;;;22.90;99.90;;;;;;5052864;28;20040;-68
2021/07/26 09:57:18;;;;;;;3.45;3.15;;;23.00;99.90;;;;;;5059774;28;20025;-70
2021/07/26 09:59:45;;;;;;;6.22;3.92;;;23.20;99.90;;;;;;5058009;28;20021;-68
2021/07/26 10:02:18;;;;;;;5.15;3.95;;;23.00;99.90;;;;;;5054786;28;20075;-67
2021/07/26 10:04:45;;;;;;;3.97;3.45;;;23.00;99.90;;;;;;5060228;28;20029;-70
2021/07/26 10:07:13;;;;;;;3.97;3.67;;;23.10;99.90;;;;;;5053650;28;20032;-68
2021/07/26 10:09:44;;;;;;;4.85;4.20;;;23.30;99.90;;;;;;5055079;28;20060;-72
2021/07/26 10:12:13;;;;;;;3.85;3.33;;;23.30;99.90;;;;;;5063097;28;20090;-68
2021/07/26 10:14:41;;;;;;;5.75;3.38;;;23.20;99.90;;;;;;5048347;28;20536;-73
2021/07/26 10:17:08;;;;;;;4.70;3.60;;;22.90;99.90;;;;;;5052352;28;20806;-73
2021/07/26 10:19:34;;;;;;;5.93;4.00;;;22.80;99.90;;;;;;5061388;28;20450;-73
2021/07/26 10:22:02;;;;;;;9.35;4.05;;;22.70;99.90;;;;;;5056935;28;20079;-69
2021/07/26 10:24:37;;;;;;;4.32;3.85;;;22.80;99.90;;;;;;5052003;28;20040;-72
2021/07/26 10:27:13;;;;;;;5.45;4.38;;;22.80;99.90;;;;;;5061481;28;20489;-72
2021/07/26 10:29:55;;;;;;;4.53;4.05;;;22.90;99.90;;;;;;5054647;28;20071;-72
2021/07/26 10:32:30;;;;;;;6.93;4.35;;;23.10;99.90;;;;;;5052884;28;20053;-72
2021/07/26 10:35:00;;;;;;;4.45;4.00;;;23.50;99.90;;;;;;5051159;28;20049;-70
2021/07/26 10:37:42;;;;;;;5.70;3.53;;;23.50;99.90;;;;;;5051310;28;20031;-71
2021/07/26 10:40:31;;;;;;;3.90;3.47;;;23.60;99.90;;;;;;5044031;28;20112;-72
2021/07/26 10:43:01;;;;;;;4.65;3.50;;;23.70;99.90;;;;;;5052456;28;20078;-70
2021/07/26 10:45:36;;;;;;;4.85;3.42;;;23.80;99.90;;;;;;5061264;28;20024;-69
2021/07/26 10:48:24;;;;;;;6.50;3.97;;;23.60;99.90;;;;;;5053995;28;20025;-72
2021/07/26 10:50:51;;;;;;;5.03;3.95;;;23.50;99.90;;;;;;5056076;28;20029;-69
2021/07/26 10:53:32;;;;;;;3.60;3.30;;;23.50;99.90;;;;;;5056984;28;20028;-69
2021/07/26 10:56:14;;;;;;;4.40;3.60;;;23.70;99.90;;;;;;5044740;28;20033;-68
2021/07/26 10:58:43;;;;;;;10.98;5.07;;;24.10;99.90;;;;;;5054609;28;20381;-72
2021/07/26 11:01:20;;;;;;;4.55;3.97;;;24.20;99.90;;;;;;5051979;28;20032;-69
2021/07/26 11:03:50;;;;;;;4.35;3.45;;;24.20;99.90;;;;;;5043648;28;20032;-69
2021/07/26 11:06:35;;;;;;;5.75;4.07;;;24.00;99.90;;;;;;5048953;28;20025;-71
2021/07/26 11:09:19;;;;;;;3.92;3.47;;;24.10;99.90;;;;;;5050736;28;20029;-72
2021/07/26 11:11:48;;;;;;;5.50;4.53;;;23.90;99.90;;;;;;5053789;28;20478;-69
2021/07/26 11:14:15;;;;;;;5.93;4.18;;;23.90;99.90;;;;;;5046977;28;20276;-70
2021/07/26 11:16:56;;;;;;;4.93;3.83;;;24.00;99.90;;;;;;5055955;28;20210;-71
2021/07/26 11:19:41;;;;;;;5.38;4.05;;;23.90;99.90;;;;;;5049470;28;20044;-70
2021/07/26 11:22:15;;;;;;;5.45;3.40;;;24.00;99.90;;;;;;5048952;28;20036;-70
2021/07/26 11:24:41;;;;;;;4.10;3.80;;;24.20;99.90;;;;;;5047222;28;20064;-68
2021/07/26 11:27:08;;;;;;;5.75;4.20;;;24.20;99.90;;;;;;5052654;28;20562;-69
2021/07/26 11:29:34;;;;;;;4.68;4.28;;;24.30;99.90;;;;;;5049172;28;20116;-67
2021/07/26 11:32:00;;;;;;;6.63;3.92;;;24.20;99.90;;;;;;5041773;28;20055;-69
2021/07/26 11:34:30;;;;;;;5.68;4.10;;;24.20;99.90;;;;;;5050630;28;20094;-69
2021/07/26 11:37:13;;;;;;;5.72;4.35;;;24.40;99.90;;;;;;5050229;28;20033;-68
2021/07/26 11:39:50;;;;;;;5.50;4.38;;;24.40;99.90;;;;;;5053865;28;20024;-70
2021/07/26 11:42:25;;;;;;;7.57;4.25;;;24.30;99.90;;;;;;5052227;28;20083;-68
2021/07/26 11:44:51;;;;;;;4.55;3.47;;;24.20;99.90;;;;;;5051753;28;20017;-68
2021/07/26 11:47:18;;;;;;;3.95;3.33;;;24.30;99.90;;;;;;5051342;28;20029;-69
2021/07/26 11:49:50;;;;;;;5.72;3.78;;;24.30;99.90;;;;;;5052122;28;20040;-68
2021/07/26 11:52:17;;;;;;;4.47;3.50;;;24.40;99.90;;;;;;5048192;28;20461;-68
2021/07/26 11:54:43;;;;;;;4.28;3.60;;;24.30;99.90;;;;;;5052743;28;20032;-68
2021/07/26 11:57:10;;;;;;;5.57;3.92;;;24.50;99.90;;;;;;5057258;28;20017;-69
2021/07/26 11:59:39;;;;;;;3.60;3.30;;;24.90;99.90;;;;;;5054501;28;20021;-68
2021/07/26 12:02:07;;;;;;;5.40;3.67;;;25.40;99.90;;;;;;5052821;28;20029;-68
2021/07/26 12:04:34;;;;;;;6.05;3.88;;;25.30;99.90;;;;;;5054058;28;20029;-68
2021/07/26 12:07:04;;;;;;;5.35;3.22;;;25.50;99.90;;;;;;5057047;28;20060;-69
2021/07/26 12:09:31;;;;;;;6.10;3.55;;;25.80;99.90;;;;;;5059831;28;20478;-69
2021/07/26 12:12:11;;;;;;;6.05;3.83;;;25.80;99.90;;;;;;5058652;28;20025;-69
2021/07/26 12:14:37;;;;;;;3.70;3.15;;;25.90;99.90;;;;;;5058191;28;20479;-69
2021/07/26 12:17:04;;;;;;;4.82;3.20;;;26.10;99.90;;;;;;5055629;28;20021;-69
2021/07/26 12:19:31;;;;;;;5.78;3.15;;;26.10;99.90;;;;;;5043981;28;20074;-69
2021/07/26 12:22:22;;;;;;;5.18;3.17;;;26.10;99.90;;;;;;5054653;28;20028;-70
2021/07/26 12:24:58;;;;;;;4.72;3.00;;;26.00;99.90;;;;;;5056209;28;20029;-69
2021/07/26 12:27:32;;;;;;;3.00;2.78;;;25.90;99.90;;;;;;5047847;28;20389;-70
2021/07/26 12:30:00;;;;;;;3.63;3.33;;;25.80;99.90;;;;;;5040367;28;20052;-70
2021/07/26 12:32:27;;;;;;;4.13;3.28;;;26.00;99.90;;;;;;5054680;28;20437;-70
2021/07/26 12:35:11;;;;;;;4.18;3.60;;;26.20;99.90;;;;;;5057240;28;20473;-69
2021/07/26 12:37:37;;;;;;;4.05;3.05;;;26.50;99.90;;;;;;5051777;28;20397;-69
2021/07/26 12:40:14;;;;;;;8.93;3.15;;;26.50;99.90;;;;;;5047368;28;20100;-69
2021/07/26 12:42:40;;;;;;;3.90;3.53;;;26.40;99.90;;;;;;5051576;28;20112;-70
2021/07/26 12:45:24;;;;;;;2.78;2.58;;;26.50;99.90;;;;;;5065277;28;20040;-69
2021/07/26 12:47:50;;;;;;;3.30;3.00;;;26.50;99.90;;;;;;5056495;28;20115;-70
2021/07/26 12:50:16;;;;;;;7.13;3.35;;;26.70;99.90;;;;;;5053379;28;20021;-69
2021/07/26 12:52:42;;;;;;;4.90;3.67;;;26.70;99.90;;;;;;5059151;28;20393;-69